sensor_id;sensor_type;location;lat;lon;timestamp;P1;durP1;ratioP1;P2;durP2;ratioP2
20000;SDS011;10161;41.188;-8.642;2023-09-07T00:01:30;2.37;;;1.93;;
20000;SDS011;10161;41.188;-8.642;2023-09-07T00:03:57;2.50;;;1.90;;
20000;SDS011;10161;41.188;-8.642;2023-09-07T00:06:24;2.20;;;1.90;;
20000;SDS011;10161;41.188;-8.642;2023-09-07T00:08:51;2.40;;;1.90;;
20000;SDS011;10161;41.188;-8.642;2023-09-07T00:11:18;2.73;;;2.00;;
20000;SDS011;10161;41.188;-8.642;2023-09-07T00:13:47;2.37;;;1.80;;
20000;SDS011;10161;41.188;-8.642;2023-09-07T00:16:13;2.10;;;1.90;;
20000;SDS011;10161;41.188;-8.642;2023-09-07T00:18:41;1.73;;;1.60;;
20000;SDS011;10161;41.188;-8.642;2023-09-07T00:21:08;2.47;;;1.73;;
20000;SDS011;10161;41.188;-8.642;2023-09-07T00:23:35;2.50;;;2.03;;
20000;SDS011;10161;41.188;-8.642;2023-09-07T00:26:02;2.23;;;1.70;;
20000;SDS011;10161;41.188;-8.642;2023-09-07T00:28:28;3.10;;;1.90;;
20000;SDS011;10161;41.188;-8.642;2023-09-07T00:30:57;2.33;;;1.70;;
20000;SDS011;10161;41.188;-8.642;2023-09-07T00:33:24;2.10;;;1.63;;
20000;SDS011;10161;41.188;-8.642;2023-09-07T00:35:51;2.17;;;1.80;;
20000;SDS011;10161;41.188;-8.642;2023-09-07T00:38:17;4.97;;;2.13;;
20000;SDS011;10161;41.188;-8.642;2023-09-07T00:40:44;2.60;;;2.10;;
20000;SDS011;10161;41.188;-8.642;2023-09-07T00:43:11;2.63;;;2.10;;
20000;SDS011;10161;41.188;-8.642;2023-09-07T00:45:39;2.40;;;1.90;;
20000;SDS011;10161;41.188;-8.642;2023-09-07T00:48:07;1.90;;;1.70;;
20000;SDS011;10161;41.188;-8.642;2023-09-07T00:50:34;1.97;;;1.77;;
20000;SDS011;10161;41.188;-8.642;2023-09-07T00:53:02;2.70;;;1.77;;
20000;SDS011;10161;41.188;-8.642;2023-09-07T00:55:32;2.10;;;1.90;;
20000;SDS011;10161;41.188;-8.642;2023-09-07T00:58:00;2.20;;;1.77;;
20000;SDS011;10161;41.188;-8.642;2023-09-07T01:00:28;2.20;;;1.57;;
20000;SDS011;10161;41.188;-8.642;2023-09-07T01:02:55;3.70;;;2.00;;
20000;SDS011;10161;41.188;-8.642;2023-09-07T01:05:24;2.00;;;1.67;;
20000;SDS011;10161;41.188;-8.642;2023-09-07T01:07:57;3.13;;;1.80;;
20000;SDS011;10161;41.188;-8.642;2023-09-07T01:10:28;2.93;;;1.83;;
20000;SDS011;10161;41.188;-8.642;2023-09-07T01:12:55;2.03;;;1.70;;
20000;SDS011;10161;41.188;-8.642;2023-09-07T01:15:22;2.93;;;2.00;;
20000;SDS011;10161;41.188;-8.642;2023-09-07T01:17:49;2.50;;;1.83;;
20000;SDS011;10161;41.188;-8.642;2023-09-07T01:20:16;2.83;;;1.70;;
20000;SDS011;10161;41.188;-8.642;2023-09-07T01:22:45;2.63;;;1.80;;
20000;SDS011;10161;41.188;-8.642;2023-09-07T01:25:12;2.83;;;1.70;;
20000;SDS011;10161;41.188;-8.642;2023-09-07T01:27:40;2.53;;;1.70;;
20000;SDS011;10161;41.188;-8.642;2023-09-07T01:30:07;1.90;;;1.50;;
20000;SDS011;10161;41.188;-8.642;2023-09-07T01:32:35;1.87;;;1.67;;
20000;SDS011;10161;41.188;-8.642;2023-09-07T01:35:02;2.60;;;1.70;;
20000;SDS011;10161;41.188;-8.642;2023-09-07T01:37:32;2.30;;;1.73;;
20000;SDS011;10161;41.188;-8.642;2023-09-07T01:40:00;3.77;;;2.10;;
20000;SDS011;10161;41.188;-8.642;2023-09-07T01:42:32;2.80;;;1.70;;
20000;SDS011;10161;41.188;-8.642;2023-09-07T01:44:59;3.47;;;1.73;;
20000;SDS011;10161;41.188;-8.642;2023-09-07T01:47:26;1.87;;;1.57;;
20000;SDS011;10161;41.188;-8.642;2023-09-07T01:49:53;1.77;;;1.63;;
20000;SDS011;10161;41.188;-8.642;2023-09-07T01:52:20;3.50;;;1.90;;
20000;SDS011;10161;41.188;-8.642;2023-09-07T01:54:47;2.63;;;1.30;;
20000;SDS011;10161;41.188;-8.642;2023-09-07T01:57:15;2.90;;;2.00;;
20000;SDS011;10161;41.188;-8.642;2023-09-07T01:59:42;2.53;;;1.77;;
20000;SDS011;10161;41.188;-8.642;2023-09-07T02:02:09;1.70;;;1.43;;
20000;SDS011;10161;41.188;-8.642;2023-09-07T02:04:37;1.90;;;1.50;;
20000;SDS011;10161;41.188;-8.642;2023-09-07T02:07:03;2.17;;;1.57;;
20000;SDS011;10161;41.188;-8.642;2023-09-07T02:09:31;2.60;;;1.40;;
20000;SDS011;10161;41.188;-8.642;2023-09-07T02:11:58;2.10;;;1.50;;
20000;SDS011;10161;41.188;-8.642;2023-09-07T02:14:26;2.17;;;1.50;;
20000;SDS011;10161;41.188;-8.642;2023-09-07T02:16:53;2.63;;;1.70;;
20000;SDS011;10161;41.188;-8.642;2023-09-07T02:19:21;2.40;;;1.57;;
20000;SDS011;10161;41.188;-8.642;2023-09-07T02:21:49;1.53;;;1.43;;
20000;SDS011;10161;41.188;-8.642;2023-09-07T02:24:16;2.37;;;1.60;;
20000;SDS011;10161;41.188;-8.642;2023-09-07T02:26:43;1.70;;;1.60;;
20000;SDS011;10161;41.188;-8.642;2023-09-07T02:29:11;1.70;;;1.57;;
20000;SDS011;10161;41.188;-8.642;2023-09-07T02:31:39;1.70;;;1.50;;
20000;SDS011;10161;41.188;-8.642;2023-09-07T02:34:06;2.60;;;1.73;;
20000;SDS011;10161;41.188;-8.642;2023-09-07T02:36:33;1.60;;;1.50;;
20000;SDS011;10161;41.188;-8.642;2023-09-07T02:39:00;2.50;;;1.40;;
20000;SDS011;10161;41.188;-8.642;2023-09-07T02:41:28;2.20;;;1.70;;
20000;SDS011;10161;41.188;-8.642;2023-09-07T02:43:55;1.67;;;1.47;;
20000;SDS011;10161;41.188;-8.642;2023-09-07T02:46:22;2.70;;;1.40;;
20000;SDS011;10161;41.188;-8.642;2023-09-07T02:48:50;1.50;;;1.33;;
20000;SDS011;10161;41.188;-8.642;2023-09-07T02:51:19;3.00;;;1.70;;
20000;SDS011;10161;41.188;-8.642;2023-09-07T02:53:46;2.40;;;1.57;;
20000;SDS011;10161;41.188;-8.642;2023-09-07T02:56:14;2.63;;;1.60;;
20000;SDS011;10161;41.188;-8.642;2023-09-07T02:58:41;2.07;;;1.47;;
20000;SDS011;10161;41.188;-8.642;2023-09-07T03:01:08;1.90;;;1.53;;
20000;SDS011;10161;41.188;-8.642;2023-09-07T03:03:35;2.30;;;1.40;;
20000;SDS011;10161;41.188;-8.642;2023-09-07T03:06:09;1.73;;;1.50;;
20000;SDS011;10161;41.188;-8.642;2023-09-07T03:08:35;1.53;;;1.40;;
20000;SDS011;10161;41.188;-8.642;2023-09-07T03:11:02;2.73;;;1.73;;
20000;SDS011;10161;41.188;-8.642;2023-09-07T03:13:29;2.90;;;1.97;;
20000;SDS011;10161;41.188;-8.642;2023-09-07T03:15:57;2.80;;;1.40;;
20000;SDS011;10161;41.188;-8.642;2023-09-07T03:18:24;1.87;;;1.40;;
20000;SDS011;10161;41.188;-8.642;2023-09-07T03:20:52;2.87;;;1.70;;
20000;SDS011;10161;41.188;-8.642;2023-09-07T03:23:22;2.00;;;1.33;;
20000;SDS011;10161;41.188;-8.642;2023-09-07T03:25:48;2.77;;;1.63;;
20000;SDS011;10161;41.188;-8.642;2023-09-07T03:28:15;2.47;;;1.90;;
20000;SDS011;10161;41.188;-8.642;2023-09-07T03:30:42;1.93;;;1.50;;
20000;SDS011;10161;41.188;-8.642;2023-09-07T03:33:09;2.00;;;1.43;;
20000;SDS011;10161;41.188;-8.642;2023-09-07T03:35:36;2.03;;;1.70;;
20000;SDS011;10161;41.188;-8.642;2023-09-07T03:38:04;1.70;;;1.43;;
20000;SDS011;10161;41.188;-8.642;2023-09-07T03:40:32;2.10;;;1.70;;
20000;SDS011;10161;41.188;-8.642;2023-09-07T03:42:59;2.43;;;1.73;;
20000;SDS011;10161;41.188;-8.642;2023-09-07T03:45:26;1.90;;;1.60;;
20000;SDS011;10161;41.188;-8.642;2023-09-07T03:47:53;3.73;;;1.80;;
20000;SDS011;10161;41.188;-8.642;2023-09-07T03:50:20;3.40;;;1.67;;
20000;SDS011;10161;41.188;-8.642;2023-09-07T03:52:46;2.57;;;1.77;;
20000;SDS011;10161;41.188;-8.642;2023-09-07T03:55:13;2.30;;;1.70;;
20000;SDS011;10161;41.188;-8.642;2023-09-07T03:57:42;2.33;;;1.57;;
20000;SDS011;10161;41.188;-8.642;2023-09-07T04:00:09;1.80;;;1.60;;
20000;SDS011;10161;41.188;-8.642;2023-09-07T04:02:38;2.10;;;1.80;;
20000;SDS011;10161;41.188;-8.642;2023-09-07T04:05:05;1.87;;;1.73;;
20000;SDS011;10161;41.188;-8.642;2023-09-07T04:07:32;1.90;;;1.70;;
20000;SDS011;10161;41.188;-8.642;2023-09-07T04:09:59;1.73;;;1.53;;
20000;SDS011;10161;41.188;-8.642;2023-09-07T04:12:26;1.77;;;1.40;;
20000;SDS011;10161;41.188;-8.642;2023-09-07T04:14:54;1.60;;;1.50;;
20000;SDS011;10161;41.188;-8.642;2023-09-07T04:17:21;1.60;;;1.50;;
20000;SDS011;10161;41.188;-8.642;2023-09-07T04:19:48;2.00;;;1.60;;
20000;SDS011;10161;41.188;-8.642;2023-09-07T04:22:15;3.13;;;1.80;;
20000;SDS011;10161;41.188;-8.642;2023-09-07T04:24:42;1.73;;;1.63;;
20000;SDS011;10161;41.188;-8.642;2023-09-07T04:27:09;2.70;;;1.80;;
20000;SDS011;10161;41.188;-8.642;2023-09-07T04:29:36;3.63;;;2.30;;
20000;SDS011;10161;41.188;-8.642;2023-09-07T04:32:04;5.03;;;1.67;;
20000;SDS011;10161;41.188;-8.642;2023-09-07T04:34:31;1.70;;;1.60;;
20000;SDS011;10161;41.188;-8.642;2023-09-07T04:36:58;1.97;;;1.60;;
20000;SDS011;10161;41.188;-8.642;2023-09-07T04:39:25;2.90;;;1.83;;
20000;SDS011;10161;41.188;-8.642;2023-09-07T04:41:52;3.03;;;1.70;;
20000;SDS011;10161;41.188;-8.642;2023-09-07T04:44:19;2.00;;;1.70;;
20000;SDS011;10161;41.188;-8.642;2023-09-07T04:46:46;1.83;;;1.70;;
20000;SDS011;10161;41.188;-8.642;2023-09-07T04:49:14;2.30;;;1.93;;
20000;SDS011;10161;41.188;-8.642;2023-09-07T04:51:41;2.10;;;1.90;;
20000;SDS011;10161;41.188;-8.642;2023-09-07T04:54:08;5.27;;;1.70;;
20000;SDS011;10161;41.188;-8.642;2023-09-07T04:56:35;2.03;;;1.63;;
20000;SDS011;10161;41.188;-8.642;2023-09-07T04:59:02;3.17;;;2.13;;
20000;SDS011;10161;41.188;-8.642;2023-09-07T05:01:29;3.10;;;1.90;;
20000;SDS011;10161;41.188;-8.642;2023-09-07T05:03:57;2.20;;;1.80;;
20000;SDS011;10161;41.188;-8.642;2023-09-07T05:06:25;2.37;;;1.93;;
20000;SDS011;10161;41.188;-8.642;2023-09-07T05:08:52;2.07;;;1.70;;
20000;SDS011;10161;41.188;-8.642;2023-09-07T05:11:19;3.87;;;1.90;;
20000;SDS011;10161;41.188;-8.642;2023-09-07T05:13:46;2.10;;;1.90;;
20000;SDS011;10161;41.188;-8.642;2023-09-07T05:16:13;2.53;;;1.73;;
20000;SDS011;10161;41.188;-8.642;2023-09-07T05:18:40;2.10;;;1.90;;
20000;SDS011;10161;41.188;-8.642;2023-09-07T05:21:11;2.77;;;1.90;;
20000;SDS011;10161;41.188;-8.642;2023-09-07T05:23:40;1.90;;;1.70;;
20000;SDS011;10161;41.188;-8.642;2023-09-07T05:26:07;1.77;;;1.67;;
20000;SDS011;10161;41.188;-8.642;2023-09-07T05:28:34;3.20;;;2.40;;
20000;SDS011;10161;41.188;-8.642;2023-09-07T05:31:01;2.33;;;1.70;;
20000;SDS011;10161;41.188;-8.642;2023-09-07T05:33:28;1.97;;;1.77;;
20000;SDS011;10161;41.188;-8.642;2023-09-07T05:35:55;2.90;;;1.83;;
20000;SDS011;10161;41.188;-8.642;2023-09-07T05:38:22;1.87;;;1.60;;
20000;SDS011;10161;41.188;-8.642;2023-09-07T05:40:51;2.70;;;2.00;;
20000;SDS011;10161;41.188;-8.642;2023-09-07T05:43:19;4.13;;;2.00;;
20000;SDS011;10161;41.188;-8.642;2023-09-07T05:45:46;3.30;;;2.20;;
20000;SDS011;10161;41.188;-8.642;2023-09-07T05:48:13;1.73;;;1.63;;
20000;SDS011;10161;41.188;-8.642;2023-09-07T05:50:41;1.93;;;1.70;;
20000;SDS011;10161;41.188;-8.642;2023-09-07T05:53:09;2.30;;;1.70;;
20000;SDS011;10161;41.188;-8.642;2023-09-07T05:55:35;2.20;;;1.80;;
20000;SDS011;10161;41.188;-8.642;2023-09-07T05:58:05;2.20;;;2.00;;
20000;SDS011;10161;41.188;-8.642;2023-09-07T06:00:33;2.43;;;1.77;;
20000;SDS011;10161;41.188;-8.642;2023-09-07T06:03:01;2.07;;;1.87;;
20000;SDS011;10161;41.188;-8.642;2023-09-07T06:05:28;2.17;;;1.90;;
20000;SDS011;10161;41.188;-8.642;2023-09-07T06:07:55;2.40;;;1.63;;
20000;SDS011;10161;41.188;-8.642;2023-09-07T06:10:22;3.03;;;1.90;;
20000;SDS011;10161;41.188;-8.642;2023-09-07T06:12:49;2.30;;;2.10;;
20000;SDS011;10161;41.188;-8.642;2023-09-07T06:15:17;1.93;;;1.70;;
20000;SDS011;10161;41.188;-8.642;2023-09-07T06:17:44;1.63;;;1.53;;
20000;SDS011;10161;41.188;-8.642;2023-09-07T06:20:11;2.30;;;1.90;;
20000;SDS011;10161;41.188;-8.642;2023-09-07T06:22:38;3.23;;;2.17;;
20000;SDS011;10161;41.188;-8.642;2023-09-07T06:25:05;2.63;;;1.80;;
20000;SDS011;10161;41.188;-8.642;2023-09-07T06:27:33;3.23;;;2.10;;
20000;SDS011;10161;41.188;-8.642;2023-09-07T06:30:00;3.60;;;2.30;;
20000;SDS011;10161;41.188;-8.642;2023-09-07T06:32:28;3.80;;;2.33;;
20000;SDS011;10161;41.188;-8.642;2023-09-07T06:34:55;2.20;;;1.97;;
20000;SDS011;10161;41.188;-8.642;2023-09-07T06:37:22;2.23;;;1.70;;
20000;SDS011;10161;41.188;-8.642;2023-09-07T06:39:50;2.00;;;1.80;;
20000;SDS011;10161;41.188;-8.642;2023-09-07T06:42:17;3.43;;;2.10;;
20000;SDS011;10161;41.188;-8.642;2023-09-07T06:44:44;2.50;;;2.00;;
20000;SDS011;10161;41.188;-8.642;2023-09-07T06:47:11;2.10;;;1.90;;
20000;SDS011;10161;41.188;-8.642;2023-09-07T06:49:39;2.20;;;2.00;;
20000;SDS011;10161;41.188;-8.642;2023-09-07T06:52:06;2.23;;;1.83;;
20000;SDS011;10161;41.188;-8.642;2023-09-07T06:54:33;2.10;;;1.77;;
20000;SDS011;10161;41.188;-8.642;2023-09-07T06:57:00;2.67;;;2.03;;
20000;SDS011;10161;41.188;-8.642;2023-09-07T06:59:27;2.30;;;2.10;;
20000;SDS011;10161;41.188;-8.642;2023-09-07T07:01:54;2.80;;;2.23;;
20000;SDS011;10161;41.188;-8.642;2023-09-07T07:04:24;1.97;;;1.87;;
20000;SDS011;10161;41.188;-8.642;2023-09-07T07:06:52;2.70;;;1.87;;
20000;SDS011;10161;41.188;-8.642;2023-09-07T07:09:20;2.13;;;2.00;;
20000;SDS011;10161;41.188;-8.642;2023-09-07T07:11:47;2.20;;;1.93;;
20000;SDS011;10161;41.188;-8.642;2023-09-07T07:14:14;2.97;;;2.20;;
20000;SDS011;10161;41.188;-8.642;2023-09-07T07:16:41;2.77;;;1.90;;
20000;SDS011;10161;41.188;-8.642;2023-09-07T07:19:08;2.10;;;1.90;;
20000;SDS011;10161;41.188;-8.642;2023-09-07T07:21:35;2.30;;;1.90;;
20000;SDS011;10161;41.188;-8.642;2023-09-07T07:24:03;2.73;;;2.20;;
20000;SDS011;10161;41.188;-8.642;2023-09-07T07:26:31;3.23;;;2.20;;
20000;SDS011;10161;41.188;-8.642;2023-09-07T07:28:58;2.80;;;2.17;;
20000;SDS011;10161;41.188;-8.642;2023-09-07T07:31:25;2.57;;;2.20;;
20000;SDS011;10161;41.188;-8.642;2023-09-07T07:33:53;2.47;;;2.10;;
20000;SDS011;10161;41.188;-8.642;2023-09-07T07:36:20;2.20;;;1.97;;
20000;SDS011;10161;41.188;-8.642;2023-09-07T07:38:47;2.27;;;2.03;;
20000;SDS011;10161;41.188;-8.642;2023-09-07T07:41:15;2.10;;;1.90;;
20000;SDS011;10161;41.188;-8.642;2023-09-07T07:43:42;3.20;;;1.77;;
20000;SDS011;10161;41.188;-8.642;2023-09-07T07:46:09;2.73;;;1.80;;
20000;SDS011;10161;41.188;-8.642;2023-09-07T07:48:36;2.30;;;2.10;;
20000;SDS011;10161;41.188;-8.642;2023-09-07T07:51:03;2.33;;;2.00;;
20000;SDS011;10161;41.188;-8.642;2023-09-07T07:53:31;3.70;;;2.27;;
20000;SDS011;10161;41.188;-8.642;2023-09-07T07:55:58;2.43;;;2.23;;
20000;SDS011;10161;41.188;-8.642;2023-09-07T07:58:26;2.60;;;1.93;;
20000;SDS011;10161;41.188;-8.642;2023-09-07T08:00:53;2.37;;;2.17;;
20000;SDS011;10161;41.188;-8.642;2023-09-07T08:03:23;2.60;;;1.90;;
20000;SDS011;10161;41.188;-8.642;2023-09-07T08:05:50;2.57;;;2.17;;
20000;SDS011;10161;41.188;-8.642;2023-09-07T08:08:17;2.57;;;2.00;;
20000;SDS011;10161;41.188;-8.642;2023-09-07T08:10:44;2.63;;;2.33;;
20000;SDS011;10161;41.188;-8.642;2023-09-07T08:13:11;2.13;;;1.90;;
20000;SDS011;10161;41.188;-8.642;2023-09-07T08:15:40;3.00;;;2.80;;
20000;SDS011;10161;41.188;-8.642;2023-09-07T08:18:07;3.80;;;3.37;;
20000;SDS011;10161;41.188;-8.642;2023-09-07T08:20:35;4.87;;;4.00;;
20000;SDS011;10161;41.188;-8.642;2023-09-07T08:23:03;6.47;;;4.80;;
20000;SDS011;10161;41.188;-8.642;2023-09-07T08:25:33;5.20;;;4.47;;
20000;SDS011;10161;41.188;-8.642;2023-09-07T08:28:00;7.20;;;6.30;;
20000;SDS011;10161;41.188;-8.642;2023-09-07T08:30:30;15.70;;;8.80;;
20000;SDS011;10161;41.188;-8.642;2023-09-07T08:32:59;11.70;;;9.57;;
20000;SDS011;10161;41.188;-8.642;2023-09-07T08:35:27;12.70;;;10.77;;
20000;SDS011;10161;41.188;-8.642;2023-09-07T08:37:55;13.03;;;11.63;;
20000;SDS011;10161;41.188;-8.642;2023-09-07T08:40:23;13.57;;;12.00;;
20000;SDS011;10161;41.188;-8.642;2023-09-07T08:42:52;13.83;;;12.40;;
20000;SDS011;10161;41.188;-8.642;2023-09-07T08:45:20;15.07;;;13.50;;
20000;SDS011;10161;41.188;-8.642;2023-09-07T08:47:48;14.70;;;13.13;;
20000;SDS011;10161;41.188;-8.642;2023-09-07T08:50:17;11.73;;;10.53;;
20000;SDS011;10161;41.188;-8.642;2023-09-07T08:52:44;12.07;;;10.80;;
20000;SDS011;10161;41.188;-8.642;2023-09-07T08:55:11;13.00;;;10.60;;
20000;SDS011;10161;41.188;-8.642;2023-09-07T08:57:38;10.13;;;9.13;;
20000;SDS011;10161;41.188;-8.642;2023-09-07T09:00:06;10.17;;;8.50;;
20000;SDS011;10161;41.188;-8.642;2023-09-07T09:02:41;10.53;;;9.10;;
20000;SDS011;10161;41.188;-8.642;2023-09-07T09:05:08;8.23;;;7.27;;
20000;SDS011;10161;41.188;-8.642;2023-09-07T09:07:37;8.70;;;6.03;;
20000;SDS011;10161;41.188;-8.642;2023-09-07T09:10:04;7.37;;;6.07;;
20000;SDS011;10161;41.188;-8.642;2023-09-07T09:12:32;6.77;;;5.20;;
20000;SDS011;10161;41.188;-8.642;2023-09-07T09:14:59;6.00;;;5.00;;
20000;SDS011;10161;41.188;-8.642;2023-09-07T09:17:28;6.70;;;4.93;;
20000;SDS011;10161;41.188;-8.642;2023-09-07T09:19:55;4.53;;;3.73;;
20000;SDS011;10161;41.188;-8.642;2023-09-07T09:22:22;5.93;;;3.60;;
20000;SDS011;10161;41.188;-8.642;2023-09-07T09:24:51;3.33;;;3.03;;
20000;SDS011;10161;41.188;-8.642;2023-09-07T09:27:18;4.23;;;2.93;;
20000;SDS011;10161;41.188;-8.642;2023-09-07T09:29:44;3.70;;;3.03;;
20000;SDS011;10161;41.188;-8.642;2023-09-07T09:32:13;3.93;;;2.60;;
20000;SDS011;10161;41.188;-8.642;2023-09-07T09:34:43;4.90;;;3.17;;
20000;SDS011;10161;41.188;-8.642;2023-09-07T09:37:12;3.30;;;2.87;;
20000;SDS011;10161;41.188;-8.642;2023-09-07T09:39:40;2.53;;;2.33;;
20000;SDS011;10161;41.188;-8.642;2023-09-07T09:42:09;3.37;;;2.50;;
20000;SDS011;10161;41.188;-8.642;2023-09-07T09:44:37;3.17;;;2.50;;
20000;SDS011;10161;41.188;-8.642;2023-09-07T09:47:04;2.23;;;2.00;;
20000;SDS011;10161;41.188;-8.642;2023-09-07T09:49:32;3.50;;;2.27;;
20000;SDS011;10161;41.188;-8.642;2023-09-07T09:52:00;2.30;;;2.00;;
20000;SDS011;10161;41.188;-8.642;2023-09-07T09:54:27;2.80;;;2.00;;
20000;SDS011;10161;41.188;-8.642;2023-09-07T09:56:55;3.67;;;2.40;;
20000;SDS011;10161;41.188;-8.642;2023-09-07T09:59:23;3.10;;;2.40;;
20000;SDS011;10161;41.188;-8.642;2023-09-07T10:01:50;3.47;;;2.07;;
20000;SDS011;10161;41.188;-8.642;2023-09-07T10:04:19;3.17;;;2.10;;
20000;SDS011;10161;41.188;-8.642;2023-09-07T10:06:53;3.10;;;2.10;;
20000;SDS011;10161;41.188;-8.642;2023-09-07T10:09:21;2.90;;;2.40;;
20000;SDS011;10161;41.188;-8.642;2023-09-07T10:11:51;3.53;;;2.30;;
20000;SDS011;10161;41.188;-8.642;2023-09-07T10:14:18;3.40;;;2.70;;
20000;SDS011;10161;41.188;-8.642;2023-09-07T10:16:48;2.23;;;2.03;;
20000;SDS011;10161;41.188;-8.642;2023-09-07T10:19:17;4.97;;;2.47;;
20000;SDS011;10161;41.188;-8.642;2023-09-07T10:21:45;3.50;;;2.50;;
20000;SDS011;10161;41.188;-8.642;2023-09-07T10:24:12;3.67;;;2.30;;
20000;SDS011;10161;41.188;-8.642;2023-09-07T10:26:55;2.60;;;2.40;;
20000;SDS011;10161;41.188;-8.642;2023-09-07T10:29:23;2.83;;;2.43;;
20000;SDS011;10161;41.188;-8.642;2023-09-07T10:31:52;3.27;;;2.37;;
20000;SDS011;10161;41.188;-8.642;2023-09-07T10:34:19;6.40;;;2.40;;
20000;SDS011;10161;41.188;-8.642;2023-09-07T10:36:47;2.60;;;2.30;;
20000;SDS011;10161;41.188;-8.642;2023-09-07T10:39:16;4.80;;;2.20;;
20000;SDS011;10161;41.188;-8.642;2023-09-07T10:41:43;2.33;;;2.13;;
20000;SDS011;10161;41.188;-8.642;2023-09-07T10:44:11;3.60;;;2.77;;
20000;SDS011;10161;41.188;-8.642;2023-09-07T10:46:39;4.13;;;2.40;;
20000;SDS011;10161;41.188;-8.642;2023-09-07T10:49:08;3.53;;;2.50;;
20000;SDS011;10161;41.188;-8.642;2023-09-07T10:51:41;3.83;;;3.00;;
20000;SDS011;10161;41.188;-8.642;2023-09-07T10:54:15;5.93;;;3.30;;
20000;SDS011;10161;41.188;-8.642;2023-09-07T10:56:43;4.20;;;2.87;;
20000;SDS011;10161;41.188;-8.642;2023-09-07T10:59:11;3.60;;;2.60;;
20000;SDS011;10161;41.188;-8.642;2023-09-07T11:01:38;4.47;;;3.07;;
20000;SDS011;10161;41.188;-8.642;2023-09-07T11:04:05;4.83;;;3.07;;
20000;SDS011;10161;41.188;-8.642;2023-09-07T11:06:34;3.53;;;2.50;;
20000;SDS011;10161;41.188;-8.642;2023-09-07T11:09:02;3.77;;;3.00;;
20000;SDS011;10161;41.188;-8.642;2023-09-07T11:11:31;3.10;;;2.63;;
20000;SDS011;10161;41.188;-8.642;2023-09-07T11:14:01;3.80;;;2.50;;
20000;SDS011;10161;41.188;-8.642;2023-09-07T11:16:29;2.80;;;2.60;;
20000;SDS011;10161;41.188;-8.642;2023-09-07T11:18:56;2.90;;;2.60;;
20000;SDS011;10161;41.188;-8.642;2023-09-07T11:21:25;3.97;;;2.90;;
20000;SDS011;10161;41.188;-8.642;2023-09-07T11:23:54;3.07;;;2.60;;
20000;SDS011;10161;41.188;-8.642;2023-09-07T11:26:21;3.47;;;2.67;;
20000;SDS011;10161;41.188;-8.642;2023-09-07T11:28:48;3.07;;;2.47;;
20000;SDS011;10161;41.188;-8.642;2023-09-07T11:31:18;3.80;;;2.57;;
20000;SDS011;10161;41.188;-8.642;2023-09-07T11:33:45;2.80;;;2.50;;
20000;SDS011;10161;41.188;-8.642;2023-09-07T11:36:13;6.37;;;3.30;;
20000;SDS011;10161;41.188;-8.642;2023-09-07T11:38:42;2.93;;;2.40;;
20000;SDS011;10161;41.188;-8.642;2023-09-07T11:41:10;4.43;;;3.00;;
20000;SDS011;10161;41.188;-8.642;2023-09-07T11:43:37;2.63;;;2.43;;
20000;SDS011;10161;41.188;-8.642;2023-09-07T11:46:05;3.37;;;2.53;;
20000;SDS011;10161;41.188;-8.642;2023-09-07T11:48:32;4.00;;;2.77;;
20000;SDS011;10161;41.188;-8.642;2023-09-07T11:50:59;4.10;;;2.70;;
20000;SDS011;10161;41.188;-8.642;2023-09-07T11:53:27;2.77;;;2.53;;
20000;SDS011;10161;41.188;-8.642;2023-09-07T11:55:55;2.83;;;2.60;;
20000;SDS011;10161;41.188;-8.642;2023-09-07T11:58:24;2.93;;;2.50;;
20000;SDS011;10161;41.188;-8.642;2023-09-07T12:00:52;3.03;;;2.63;;
20000;SDS011;10161;41.188;-8.642;2023-09-07T12:03:20;3.20;;;2.67;;
20000;SDS011;10161;41.188;-8.642;2023-09-07T12:05:46;3.27;;;2.87;;
20000;SDS011;10161;41.188;-8.642;2023-09-07T12:08:14;2.97;;;2.57;;
20000;SDS011;10161;41.188;-8.642;2023-09-07T12:10:40;2.90;;;2.63;;
20000;SDS011;10161;41.188;-8.642;2023-09-07T12:13:07;3.10;;;2.57;;
20000;SDS011;10161;41.188;-8.642;2023-09-07T12:15:36;2.80;;;2.60;;
20000;SDS011;10161;41.188;-8.642;2023-09-07T12:18:04;3.13;;;2.60;;
20000;SDS011;10161;41.188;-8.642;2023-09-07T12:20:31;3.00;;;2.80;;
20000;SDS011;10161;41.188;-8.642;2023-09-07T12:22:59;4.63;;;2.53;;
20000;SDS011;10161;41.188;-8.642;2023-09-07T12:25:27;2.97;;;2.77;;
20000;SDS011;10161;41.188;-8.642;2023-09-07T12:27:54;3.20;;;2.90;;
20000;SDS011;10161;41.188;-8.642;2023-09-07T12:30:21;3.70;;;3.40;;
20000;SDS011;10161;41.188;-8.642;2023-09-07T12:32:50;5.00;;;2.70;;
20000;SDS011;10161;41.188;-8.642;2023-09-07T12:35:17;3.17;;;2.80;;
20000;SDS011;10161;41.188;-8.642;2023-09-07T12:37:45;3.53;;;3.23;;
20000;SDS011;10161;41.188;-8.642;2023-09-07T12:40:12;2.97;;;2.77;;
20000;SDS011;10161;41.188;-8.642;2023-09-07T12:42:40;3.50;;;3.17;;
20000;SDS011;10161;41.188;-8.642;2023-09-07T12:45:07;3.83;;;2.90;;
20000;SDS011;10161;41.188;-8.642;2023-09-07T12:47:35;3.87;;;3.10;;
20000;SDS011;10161;41.188;-8.642;2023-09-07T12:50:04;3.23;;;2.60;;
20000;SDS011;10161;41.188;-8.642;2023-09-07T12:52:32;4.37;;;3.00;;
20000;SDS011;10161;41.188;-8.642;2023-09-07T12:55:00;3.20;;;2.90;;
20000;SDS011;10161;41.188;-8.642;2023-09-07T12:57:27;3.73;;;3.07;;
20000;SDS011;10161;41.188;-8.642;2023-09-07T12:59:54;4.37;;;3.27;;
20000;SDS011;10161;41.188;-8.642;2023-09-07T13:02:21;3.30;;;2.83;;
20000;SDS011;10161;41.188;-8.642;2023-09-07T13:04:48;6.60;;;2.90;;
20000;SDS011;10161;41.188;-8.642;2023-09-07T13:07:16;3.03;;;2.73;;
20000;SDS011;10161;41.188;-8.642;2023-09-07T13:09:43;2.80;;;2.60;;
20000;SDS011;10161;41.188;-8.642;2023-09-07T13:12:11;2.70;;;2.50;;
20000;SDS011;10161;41.188;-8.642;2023-09-07T13:14:38;2.50;;;2.30;;
20000;SDS011;10161;41.188;-8.642;2023-09-07T13:17:05;4.33;;;3.33;;
20000;SDS011;10161;41.188;-8.642;2023-09-07T13:19:31;3.47;;;2.57;;
20000;SDS011;10161;41.188;-8.642;2023-09-07T13:21:58;3.50;;;2.90;;
20000;SDS011;10161;41.188;-8.642;2023-09-07T13:24:27;3.10;;;2.60;;
20000;SDS011;10161;41.188;-8.642;2023-09-07T13:26:54;3.33;;;2.60;;
20000;SDS011;10161;41.188;-8.642;2023-09-07T13:29:21;3.40;;;2.80;;
20000;SDS011;10161;41.188;-8.642;2023-09-07T13:31:48;3.90;;;2.90;;
20000;SDS011;10161;41.188;-8.642;2023-09-07T13:34:15;3.33;;;3.03;;
20000;SDS011;10161;41.188;-8.642;2023-09-07T13:36:42;3.60;;;3.30;;
20000;SDS011;10161;41.188;-8.642;2023-09-07T13:39:09;3.20;;;2.90;;
20000;SDS011;10161;41.188;-8.642;2023-09-07T13:41:37;3.80;;;3.20;;
20000;SDS011;10161;41.188;-8.642;2023-09-07T13:44:04;3.00;;;2.73;;
20000;SDS011;10161;41.188;-8.642;2023-09-07T13:46:31;4.00;;;3.10;;
20000;SDS011;10161;41.188;-8.642;2023-09-07T13:48:58;3.67;;;2.87;;
20000;SDS011;10161;41.188;-8.642;2023-09-07T13:51:26;4.07;;;3.17;;
20000;SDS011;10161;41.188;-8.642;2023-09-07T13:53:53;3.33;;;2.97;;
20000;SDS011;10161;41.188;-8.642;2023-09-07T13:56:19;3.80;;;3.30;;
20000;SDS011;10161;41.188;-8.642;2023-09-07T13:58:48;3.50;;;2.77;;
20000;SDS011;10161;41.188;-8.642;2023-09-07T14:01:15;3.37;;;3.00;;
20000;SDS011;10161;41.188;-8.642;2023-09-07T14:03:42;4.00;;;3.03;;
20000;SDS011;10161;41.188;-8.642;2023-09-07T14:06:09;3.10;;;2.80;;
20000;SDS011;10161;41.188;-8.642;2023-09-07T14:08:36;2.60;;;2.40;;
20000;SDS011;10161;41.188;-8.642;2023-09-07T14:11:03;2.90;;;2.60;;
20000;SDS011;10161;41.188;-8.642;2023-09-07T14:13:31;3.07;;;2.37;;
20000;SDS011;10161;41.188;-8.642;2023-09-07T14:16:01;3.33;;;3.03;;
20000;SDS011;10161;41.188;-8.642;2023-09-07T14:18:28;2.70;;;2.50;;
20000;SDS011;10161;41.188;-8.642;2023-09-07T14:20:55;3.43;;;2.73;;
20000;SDS011;10161;41.188;-8.642;2023-09-07T14:23:23;3.20;;;2.77;;
20000;SDS011;10161;41.188;-8.642;2023-09-07T14:25:51;2.73;;;2.43;;
20000;SDS011;10161;41.188;-8.642;2023-09-07T14:28:18;3.03;;;2.73;;
20000;SDS011;10161;41.188;-8.642;2023-09-07T14:30:44;2.90;;;2.63;;
20000;SDS011;10161;41.188;-8.642;2023-09-07T14:33:13;2.60;;;2.40;;
20000;SDS011;10161;41.188;-8.642;2023-09-07T14:35:40;3.00;;;2.70;;